Time;durP1;ratioP1;P1;durP2;ratioP2;P2;SDS_P1;SDS_P2;PMS_P1;PMS_P2;Temp;Humidity;BMP_temperature;BMP_pressure;BME280_temperature;BME280_humidity;BME280_pressure;Samples;Min_cycle;Max_cycle;Signal;HPM_P1;HPM_P2
2024/01/18 00:01:51;;;;;;;;;;;;;;;-2.02;100.00;99319.50;5038018;28;19921;-71
2024/01/18 00:04:16;;;;;;;;;;;;;;;-2.03;100.00;99327.47;5017775;28;19925;-71
2024/01/18 00:06:41;;;;;;;;;;;;;;;-2.08;100.00;99332.94;5008505;28;19928;-71
2024/01/18 00:09:06;;;;;;;;;;;;;;;-2.10;100.00;99334.78;5017556;28;19964;-71
2024/01/18 00:11:31;;;;;;;;;;;;;;;-2.13;100.00;99333.19;5013846;28;20012;-72
2024/01/18 00:13:57;;;;;;;;;;;;;;;-2.09;100.00;99333.03;5004946;28;19921;-71
2024/01/18 00:16:22;;;;;;;;;;;;;;;-2.05;100.00;99338.06;5006880;28;19925;-71
2024/01/18 00:18:47;;;;;;;;;;;;;;;-2.05;100.00;99335.41;5014222;28;19970;-71
2024/01/18 00:21:12;;;;;;;;;;;;;;;-2.00;100.00;99343.94;5015945;28;20383;-71
2024/01/18 00:23:37;;;;;;;;;;;;;;;-1.99;100.00;99348.28;5009132;28;19921;-71
2024/01/18 00:26:04;;;;;;;;;;;;;;;-1.98;100.00;99341.22;5015575;28;19921;-71
2024/01/18 00:28:29;;;;;;;;;;;;;;;-1.95;100.00;99351.59;5014368;28;19998;-71
2024/01/18 00:30:54;;;;;;;;;;;;;;;-1.93;100.00;99351.53;5015027;28;20355;-71
2024/01/18 00:33:19;;;;;;;;;;;;;;;-1.90;100.00;99354.84;5015679;28;20356;-71
2024/01/18 00:35:44;;;;;;;;;;;;;;;-1.90;100.00;99357.47;4998223;28;19921;-71
2024/01/18 00:38:10;;;;;;;;;;;;;;;-1.89;100.00;99368.88;4997632;28;20360;-71
2024/01/18 00:40:35;;;;;;;;;;;;;;;-1.90;100.00;99364.53;5024365;28;19929;-71
2024/01/18 00:43:00;;;;;;;;;;;;;;;-1.93;100.00;99372.56;5015201;28;19921;-71
2024/01/18 00:45:25;;;;;;;;;;;;;;;-1.94;100.00;99369.06;5011221;28;20277;-71
2024/01/18 00:47:51;;;;;;;;;;;;;;;-1.94;100.00;99376.13;5015594;28;20318;-71
2024/01/18 00:50:16;;;;;;;;;;;;;;;-1.95;100.00;99377.91;5013878;28;20414;-71
2024/01/18 00:52:41;;;;;;;;;;;;;;;-1.97;100.00;99375.34;5014353;28;20530;-71
2024/01/18 00:55:07;;;;;;;;;;;;;;;-1.97;100.00;99380.63;5009107;28;20369;-71
2024/01/18 00:57:33;;;;;;;;;;;;;;;-1.99;100.00;99389.53;5016582;28;19927;-71
2024/01/18 00:59:59;;;;;;;;;;;;;;;-2.05;100.00;99387.19;5018796;28;19986;-71
2024/01/18 01:02:24;;;;;;;;;;;;;;;-2.07;100.00;99387.25;5018622;28;20300;-71
2024/01/18 01:04:50;;;;;;;;;;;;;;;-2.07;100.00;99384.63;5015137;28;19964;-71
2024/01/18 01:07:15;;;;;;;;;;;;;;;-2.11;100.00;99398.84;5016897;28;20296;-71
2024/01/18 01:09:40;;;;;;;;;;;;;;;-2.12;100.00;99399.78;5014032;28;20832;-71
2024/01/18 01:12:05;;;;;;;;;;;;;;;-2.15;100.00;99387.63;5012832;28;20693;-71
2024/01/18 01:14:31;;;;;;;;;;;;;;;-2.17;100.00;99392.09;5014234;28;20476;-71
2024/01/18 01:16:56;;;;;;;;;;;;;;;-2.20;100.00;99388.78;5015673;28;19925;-71
2024/01/18 01:19:21;;;;;;;;;;;;;;;-2.21;100.00;99392.34;5011537;28;20301;-71
2024/01/18 01:21:46;;;;;;;;;;;;;;;-2.23;100.00;99395.03;5011851;28;19960;-71
2024/01/18 01:24:11;;;;;;;;;;;;;;;-2.30;100.00;99406.78;5012054;28;20052;-71
2024/01/18 01:26:37;;;;;;;;;;;;;;;-2.34;100.00;99415.72;4998949;28;19944;-71
2024/01/18 01:29:03;;;;;;;;;;;;;;;-2.41;100.00;99416.00;5012378;28;19968;-71
2024/01/18 01:31:28;;;;;;;;;;;;;;;-2.46;100.00;99418.00;5019689;28;19925;-71
2024/01/18 01:33:53;;;;;;;;;;;;;;;-2.45;100.00;99419.72;5015235;28;20299;-70
2024/01/18 01:36:19;;;;;;;;;;;;;;;-2.46;100.00;99420.63;5013013;28;19935;-71
2024/01/18 01:38:44;;;;;;;;;;;;;;;-2.45;100.00;99421.50;5010464;28;19917;-71
2024/01/18 01:41:09;;;;;;;;;;;;;;;-2.45;100.00;99416.25;5012454;28;19921;-71
2024/01/18 01:43:34;;;;;;;;;;;;;;;-2.43;100.00;99420.50;5012298;28;19925;-71
2024/01/18 01:46:00;;;;;;;;;;;;;;;-2.43;100.00;99424.91;5016166;28;20407;-71
2024/01/18 01:48:25;;;;;;;;;;;;;;;-2.44;100.00;99428.47;5016016;28;20444;-71
2024/01/18 01:50:50;;;;;;;;;;;;;;;-2.46;100.00;99430.31;5014360;28;19968;-71
2024/01/18 01:53:16;;;;;;;;;;;;;;;-2.47;100.00;99433.84;5013594;28;19925;-71
2024/01/18 01:55:41;;;;;;;;;;;;;;;-2.48;100.00;99432.16;5016707;28;19921;-71
2024/01/18 01:58:06;;;;;;;;;;;;;;;-2.50;100.00;99426.94;5015140;28;20386;-71
2024/01/18 02:00:32;;;;;;;;;;;;;;;-2.53;100.00;99442.03;5025353;28;19970;-71
2024/01/18 02:02:57;;;;;;;;;;;;;;;-2.60;100.00;99444.09;5012140;28;19970;-71
2024/01/18 02:05:22;;;;;;;;;;;;;;;-2.66;100.00;99449.63;5010459;28;19979;-71
2024/01/18 02:07:48;;;;;;;;;;;;;;;-2.68;100.00;99448.81;5010549;28;20191;-71
2024/01/18 02:10:13;;;;;;;;;;;;;;;-2.72;100.00;99438.44;5014149;28;19928;-71
2024/01/18 02:12:38;;;;;;;;;;;;;;;-2.74;100.00;99442.09;5013703;28;19925;-71
2024/01/18 02:15:04;;;;;;;;;;;;;;;-2.74;100.00;99453.44;5011834;28;19972;-72
2024/01/18 02:17:29;;;;;;;;;;;;;;;-2.75;100.00;99450.88;5012456;28;20164;-71
2024/01/18 02:19:54;;;;;;;;;;;;;;;-2.76;100.00;99447.38;5013488;28;19929;-71
2024/01/18 02:22:20;;;;;;;;;;;;;;;-2.73;100.00;99456.94;5015855;28;19956;-71
2024/01/18 02:24:46;;;;;;;;;;;;;;;-2.71;100.00;99453.28;5016413;28;19957;-71
2024/01/18 02:27:11;;;;;;;;;;;;;;;-2.68;100.00;99460.22;5012619;28;19948;-71
2024/01/18 02:29:36;;;;;;;;;;;;;;;-2.68;100.00;99451.47;5014746;28;19921;-71
2024/01/18 02:32:02;;;;;;;;;;;;;;;-2.67;100.00;99454.03;5016683;28;19921;-71
2024/01/18 02:34:27;;;;;;;;;;;;;;;-2.69;100.00;99445.38;5011689;28;19924;-71
2024/01/18 02:36:52;;;;;;;;;;;;;;;-2.78;100.00;99454.47;5015991;28;19921;-71
2024/01/18 02:39:17;;;;;;;;;;;;;;;-2.74;100.00;99445.56;5015191;28;19933;-71
2024/01/18 02:41:42;;;;;;;;;;;;;;;-2.70;100.00;99441.03;5019230;28;19928;-71
2024/01/18 02:44:08;;;;;;;;;;;;;;;-2.67;100.00;99446.16;5017528;28;19964;-71
2024/01/18 02:46:33;;;;;;;;;;;;;;;-2.67;100.00;99447.91;5016492;28;20043;-71
2024/01/18 02:48:58;;;;;;;;;;;;;;;-2.64;100.00;99453.88;5015338;28;19921;-71
2024/01/18 02:51:24;;;;;;;;;;;;;;;-2.67;100.00;99456.66;5012816;28;19917;-71
2024/01/18 02:53:49;;;;;;;;;;;;;;;-2.73;100.00;99454.31;5015516;28;19936;-71
2024/01/18 02:56:14;;;;;;;;;;;;;;;-2.76;100.00;99454.44;5018895;28;19964;-71
2024/01/18 02:58:39;;;;;;;;;;;;;;;-2.80;100.00;99458.13;5018779;28;20008;-71
2024/01/18 03:01:04;;;;;;;;;;;;;;;-2.80;100.00;99458.13;5017376;28;19931;-72
2024/01/18 03:03:30;;;;;;;;;;;;;;;-2.83;100.00;99464.38;5016105;28;19928;-71
2024/01/18 03:05:55;;;;;;;;;;;;;;;-2.83;100.00;99459.13;5019205;28;19932;-71
2024/01/18 03:08:20;;;;;;;;;;;;;;;-2.82;100.00;99460.81;5011655;28;20329;-71
2024/01/18 03:10:45;;;;;;;;;;;;;;;-2.78;100.00;99459.75;5016523;28;19924;-71
2024/01/18 03:13:11;;;;;;;;;;;;;;;-2.75;100.00;99464.88;5017770;28;19927;-71
2024/01/18 03:15:36;;;;;;;;;;;;;;;-2.76;100.00;99464.94;5016834;28;19950;-71
2024/01/18 03:18:01;;;;;;;;;;;;;;;-2.74;100.00;99461.31;5016130;28;19920;-71
2024/01/18 03:20:26;;;;;;;;;;;;;;;-2.74;100.00;99463.94;5017827;28;20232;-71
2024/01/18 03:22:51;;;;;;;;;;;;;;;-2.77;100.00;99464.06;5017750;28;19921;-71
2024/01/18 03:25:17;;;;;;;;;;;;;;;-2.79;100.00;99459.81;5002683;28;19925;-71
2024/01/18 03:27:43;;;;;;;;;;;;;;;-2.82;100.00;99470.47;5016919;28;19928;-71
2024/01/18 03:30:08;;;;;;;;;;;;;;;-2.87;100.00;99471.53;5017549;28;20343;-71
2024/01/18 03:32:33;;;;;;;;;;;;;;;-2.90;100.00;99474.28;5000612;28;19932;-71
2024/01/18 03:34:59;;;;;;;;;;;;;;;-2.92;100.00;99470.91;5010244;28;20379;-71
2024/01/18 03:37:24;;;;;;;;;;;;;;;-2.95;100.00;99471.03;5013101;28;20004;-71
2024/01/18 03:39:49;;;;;;;;;;;;;;;-2.96;100.00;99481.59;5012466;28;19925;-71
2024/01/18 03:42:15;;;;;;;;;;;;;;;-2.99;100.00;99482.59;5017722;28;19928;-71
2024/01/18 03:44:40;;;;;;;;;;;;;;;-3.03;100.00;99492.34;5016473;28;19944;-71
2024/01/18 03:47:05;;;;;;;;;;;;;;;-3.08;100.00;99481.22;5018770;28;19987;-71
2024/01/18 03:49:31;;;;;;;;;;;;;;;-3.13;100.00;99487.56;5018307;28;19927;-71
2024/01/18 03:51:56;;;;;;;;;;;;;;;-3.21;100.00;99486.13;5016024;28;19923;-71
2024/01/18 03:54:22;;;;;;;;;;;;;;;-3.35;100.00;99485.84;5012032;28;19924;-71
2024/01/18 03:56:47;;;;;;;;;;;;;;;-3.41;100.00;99491.34;5015555;28;19921;-71
2024/01/18 03:59:13;;;;;;;;;;;;;;;-3.47;100.00;99489.84;5016056;28;19987;-71
2024/01/18 04:01:39;;;;;;;;;;;;;;;-3.50;100.00;99487.34;5017681;28;19925;-71
2024/01/18 04:04:04;;;;;;;;;;;;;;;-3.54;100.00;99481.38;5017065;28;19922;-71
2024/01/18 04:06:29;;;;;;;;;;;;;;;-3.56;100.00;99488.47;5016814;28;19927;-71
2024/01/18 04:08:54;;;;;;;;;;;;;;;-3.60;100.00;99491.28;5016669;28;19921;-71
2024/01/18 04:11:19;;;;;;;;;;;;;;;-3.69;100.00;99493.34;5000812;28;19929;-71
2024/01/18 04:13:45;;;;;;;;;;;;;;;-3.72;100.00;99503.13;4993825;28;19929;-71
2024/01/18 04:16:11;;;;;;;;;;;;;;;-3.79;100.00;99495.50;4994819;28;19925;-71
2024/01/18 04:18:36;;;;;;;;;;;;;;;-3.85;100.00;99494.91;5002085;28;19925;-71
2024/01/18 04:21:01;;;;;;;;;;;;;;;-3.89;100.00;99493.31;4995052;28;20127;-71
2024/01/18 04:23:26;;;;;;;;;;;;;;;-4.02;100.00;99506.03;4992598;28;20016;-71
2024/01/18 04:25:52;;;;;;;;;;;;;;;-4.09;100.00;99502.78;4993933;28;20012;-71
2024/01/18 04:28:20;;;;;;;;;;;;;;;-4.19;100.00;99512.78;4990662;28;19951;-71
2024/01/18 04:30:45;;;;;;;;;;;;;;;-4.26;100.00;99520.03;4992298;28;20193;-71
2024/01/18 04:33:10;;;;;;;;;;;;;;;-4.27;100.00;99525.34;4991762;28;19927;-71
2024/01/18 04:35:35;;;;;;;;;;;;;;;-4.29;100.00;99520.13;4995502;28;20008;-70
2024/01/18 04:38:01;;;;;;;;;;;;;;;-4.33;100.00;99523.78;4996997;28;19928;-71
2024/01/18 04:40:26;;;;;;;;;;;;;;;-4.33;100.00;99522.94;4990870;28;19930;-71
2024/01/18 04:42:52;;;;;;;;;;;;;;;-4.34;100.00;99531.72;4991344;28;19925;-71
2024/01/18 04:45:18;;;;;;;;;;;;;;;-4.35;100.00;99536.09;4992705;28;20534;-71
2024/01/18 04:47:43;;;;;;;;;;;;;;;-4.35;100.00;99537.88;4989771;28;20415;-70
2024/01/18 04:50:08;;;;;;;;;;;;;;;-4.41;100.00;99552.91;5001097;28;19922;-70
2024/01/18 04:52:33;;;;;;;;;;;;;;;-4.48;100.00;99554.03;4998283;28;19956;-71
2024/01/18 04:55:03;;;;;;;;;;;;;;;-4.50;100.00;99545.38;5002906;28;19922;-71
2024/01/18 04:57:28;;;;;;;;;;;;;;;-4.50;100.00;99542.75;4996726;28;19922;-71
2024/01/18 04:59:53;;;;;;;;;;;;;;;-4.53;100.00;99542.88;4998557;28;19936;-71
2024/01/18 05:02:19;;;;;;;;;;;;;;;-4.54;100.00;99547.25;4990178;28;19932;-71
2024/01/18 05:04:44;;;;;;;;;;;;;;;-4.60;100.00;99542.22;4997497;28;19922;-70
2024/01/18 05:07:10;;;;;;;;;;;;;;;-4.69;100.00;99551.28;4989726;28;20007;-71
2024/01/18 05:09:36;;;;;;;;;;;;;;;-4.76;100.00;99555.00;4993952;28;20024;-71
2024/01/18 05:12:01;;;;;;;;;;;;;;;-4.81;100.00;99556.97;4991833;28;20395;-70
2024/01/18 05:14:26;;;;;;;;;;;;;;;-4.85;100.00;99561.44;4997044;28;20380;-70
2024/01/18 05:16:53;;;;;;;;;;;;;;;-4.90;100.00;99557.28;4996524;28;20033;-71
2024/01/18 05:19:18;;;;;;;;;;;;;;;-5.01;100.00;99565.50;4997983;28;19921;-70
2024/01/18 05:21:43;;;;;;;;;;;;;;;-4.98;100.00;99570.63;4993500;28;19980;-70
2024/01/18 05:24:09;;;;;;;;;;;;;;;-4.95;100.00;99570.53;4995525;28;19921;-70
2024/01/18 05:26:34;;;;;;;;;;;;;;;-4.95;100.00;99575.78;4992946;28;20281;-71
2024/01/18 05:28:59;;;;;;;;;;;;;;;-4.97;100.00;99574.97;4988588;28;20012;-71
2024/01/18 05:31:25;;;;;;;;;;;;;;;-4.94;100.00;99574.88;5003506;28;19921;-71
2024/01/18 05:33:51;;;;;;;;;;;;;;;-4.93;100.00;99580.94;4996848;28;19968;-70
2024/01/18 05:36:16;;;;;;;;;;;;;;;-5.00;100.00;99575.06;4995867;28;19924;-71
2024/01/18 05:38:41;;;;;;;;;;;;;;;-5.08;100.00;99580.56;4995322;28;19921;-71
2024/01/18 05:41:07;;;;;;;;;;;;;;;-5.18;100.00;99587.88;4997225;28;19968;-73
2024/01/18 05:43:32;;;;;;;;;;;;;;;-5.22;100.00;99583.63;4998912;28;20031;-70
2024/01/18 05:45:58;;;;;;;;;;;;;;;-5.24;100.00;99592.44;5000221;28;19967;-71
2024/01/18 05:48:23;;;;;;;;;;;;;;;-5.25;100.00;99602.06;4996905;28;20414;-70
2024/01/18 05:50:48;;;;;;;;;;;;;;;-5.24;100.00;99602.91;5010287;28;20398;-71
2024/01/18 05:53:13;;;;;;;;;;;;;;;-5.24;100.00;99603.78;4987614;28;20395;-71
2024/01/18 05:55:38;;;;;;;;;;;;;;;-5.23;100.00;99605.47;4981461;28;20486;-70
2024/01/18 05:58:04;;;;;;;;;;;;;;;-5.24;100.00;99609.00;4995867;28;20423;-70
2024/01/18 06:00:29;;;;;;;;;;;;;;;-5.29;100.00;99619.59;4997341;28;20580;-70
2024/01/18 06:02:56;;;;;;;;;;;;;;;-5.38;100.00;99612.06;5011464;28;19944;-70
2024/01/18 06:05:21;;;;;;;;;;;;;;;-5.45;100.00;99619.25;5002485;28;19936;-70
2024/01/18 06:07:46;;;;;;;;;;;;;;;-5.47;100.00;99621.06;4989223;28;19925;-70
2024/01/18 06:10:12;;;;;;;;;;;;;;;-5.45;100.00;99624.50;4981166;28;19925;-70
2024/01/18 06:12:37;;;;;;;;;;;;;;;-5.43;100.00;99627.88;4980835;28;19925;-71
2024/01/18 06:15:02;;;;;;;;;;;;;;;-5.38;100.00;99634.72;4988429;28;19925;-71
2024/01/18 06:17:27;;;;;;;;;;;;;;;-5.37;100.00;99636.44;4996868;28;19941;-71
2024/01/18 06:19:53;;;;;;;;;;;;;;;-5.46;100.00;99648.94;4980090;28;19932;-71
2024/01/18 06:22:18;;;;;;;;;;;;;;;-5.49;100.00;99653.38;4984975;28;19968;-71
2024/01/18 06:24:44;;;;;;;;;;;;;;;-5.56;100.00;99652.72;4987023;28;20360;-71
2024/01/18 06:27:09;;;;;;;;;;;;;;;-5.62;100.00;99664.22;4979017;28;19921;-71
2024/01/18 06:29:36;;;;;;;;;;;;;;;-5.70;100.00;99658.38;5013045;28;19961;-71
2024/01/18 06:32:02;;;;;;;;;;;;;;;-5.73;100.00;99663.69;5002043;28;19921;-71
2024/01/18 06:34:27;;;;;;;;;;;;;;;-5.78;100.00;99673.41;4988896;28;19913;-71
2024/01/18 06:36:52;;;;;;;;;;;;;;;-5.81;100.00;99678.72;4999946;28;20362;-71
2024/01/18 06:39:17;;;;;;;;;;;;;;;-5.83;100.00;99680.56;4993504;28;19921;-71
2024/01/18 06:41:43;;;;;;;;;;;;;;;-5.85;100.00;99685.81;4997461;28;19922;-71
2024/01/18 06:44:08;;;;;;;;;;;;;;;-5.82;100.00;99690.97;4996668;28;20291;-71
2024/01/18 06:46:33;;;;;;;;;;;;;;;-5.84;100.00;99684.91;4981932;28;20451;-71
2024/01/18 06:49:00;;;;;;;;;;;;;;;-5.80;100.00;99694.41;4998853;28;20272;-71
2024/01/18 06:51:25;;;;;;;;;;;;;;;-5.79;100.00;99684.78;4995400;28;19925;-71
2024/01/18 06:53:51;;;;;;;;;;;;;;;-5.78;100.00;99692.59;4978845;28;19920;-71
2024/01/18 06:56:16;;;;;;;;;;;;;;;-5.77;100.00;99696.91;4977364;28;19928;-72
2024/01/18 06:58:42;;;;;;;;;;;;;;;-5.81;100.00;99697.03;4991877;28;20404;-71
2024/01/18 07:01:07;;;;;;;;;;;;;;;-5.83;100.00;99704.09;4992208;28;19929;-71
2024/01/18 07:03:35;;;;;;;;;;;;;;;-5.86;100.00;99705.03;4972955;28;20220;-71
2024/01/18 07:06:00;;;;;;;;;;;;;;;-5.91;100.00;99710.38;4986981;28;19921;-71
2024/01/18 07:08:25;;;;;;;;;;;;;;;-5.95;100.00;99707.88;4991309;28;19944;-71
2024/01/18 07:10:50;;;;;;;;;;;;;;;-5.93;100.00;99713.94;4992400;28;19929;-71
2024/01/18 07:13:16;;;;;;;;;;;;;;;-5.94;100.00;99718.31;4987934;28;19948;-71
2024/01/18 07:15:41;;;;;;;;;;;;;;;-5.92;100.00;99726.09;4993760;28;20008;-71
2024/01/18 07:18:06;;;;;;;;;;;;;;;-5.93;100.00;99727.88;4990369;28;19925;-71
2024/01/18 07:20:31;;;;;;;;;;;;;;;-5.93;100.00;99733.09;4993183;28;19952;-71
2024/01/18 07:22:56;;;;;;;;;;;;;;;-5.95;100.00;99739.25;4974570;28;19979;-71
2024/01/18 07:25:22;;;;;;;;;;;;;;;-5.98;100.00;99747.19;4994641;28;20292;-71
2024/01/18 07:27:47;;;;;;;;;;;;;;;-5.98;100.00;99747.19;4992939;28;20384;-71
2024/01/18 07:30:14;;;;;;;;;;;;;;;-6.00;100.00;99749.03;4991349;28;20365;-71
2024/01/18 07:32:39;;;;;;;;;;;;;;;-6.00;100.00;99751.66;4996288;28;20387;-71
2024/01/18 07:35:04;;;;;;;;;;;;;;;-6.01;100.00;99750.78;4994348;28;19961;-71
2024/01/18 07:37:29;;;;;;;;;;;;;;;-6.04;100.00;99750.84;4992997;28;19925;-71
2024/01/18 07:39:55;;;;;;;;;;;;;;;-6.06;100.00;99753.53;4996501;28;19929;-71
2024/01/18 07:42:20;;;;;;;;;;;;;;;-6.02;100.00;99756.91;4993341;28;19918;-71
2024/01/18 07:44:46;;;;;;;;;;;;;;;-5.99;100.00;99755.94;4997287;28;19949;-71
2024/01/18 07:47:11;;;;;;;;;;;;;;;-5.99;100.00;99755.94;4992654;28;20052;-71
2024/01/18 07:49:37;;;;;;;;;;;;;;;-6.00;100.00;99764.72;4989112;28;20004;-71
2024/01/18 07:52:03;;;;;;;;;;;;;;;-6.01;100.00;99765.63;4991808;28;20328;-71
2024/01/18 07:54:28;;;;;;;;;;;;;;;-6.03;100.00;99776.09;4997323;28;20439;-71
2024/01/18 07:56:55;;;;;;;;;;;;;;;-6.08;100.00;99771.00;4989867;28;19943;-71
2024/01/18 07:59:21;;;;;;;;;;;;;;;-6.04;100.00;99785.69;4976311;28;19926;-71
2024/01/18 08:01:47;;;;;;;;;;;;;;;-5.98;100.00;99783.81;4980392;28;19925;-71
2024/01/18 08:04:12;;;;;;;;;;;;;;;-5.90;100.00;99785.31;4973054;28;19918;-71
2024/01/18 08:06:37;;;;;;;;;;;;;;;-5.81;100.00;99799.00;4987401;28;20668;-71
2024/01/18 08:09:02;;;;;;;;;;;;;;;-5.75;100.00;99804.06;4977300;28;19929;-71
2024/01/18 08:11:28;;;;;;;;;;;;;;;-5.67;100.00;99804.72;4993374;28;19980;-72
2024/01/18 08:13:53;;;;;;;;;;;;;;;-5.44;100.00;99811.94;4991556;28;19922;-71
2024/01/18 08:16:18;;;;;;;;;;;;;;;-5.27;100.00;99800.13;4990035;28;20340;-71
2024/01/18 08:18:44;;;;;;;;;;;;;;;-5.01;100.00;99808.97;4983515;28;20253;-72
2024/01/18 08:21:09;;;;;;;;;;;;;;;-4.90;100.00;99813.88;4986244;28;20166;-72
2024/01/18 08:23:34;;;;;;;;;;;;;;;-4.80;100.00;99823.19;4989364;28;19928;-71
2024/01/18 08:26:00;;;;;;;;;;;;;;;-4.64;100.00;99831.41;4986672;28;19917;-72
2024/01/18 08:28:25;;;;;;;;;;;;;;;-4.48;100.00;99817.81;4990035;28;19922;-71
2024/01/18 08:30:50;;;;;;;;;;;;;;;-4.06;100.00;99833.03;4989419;28;20027;-72
2024/01/18 08:33:16;;;;;;;;;;;;;;;-3.74;100.00;99833.72;5003431;28;19925;-72
2024/01/18 08:35:41;;;;;;;;;;;;;;;-3.51;100.00;99834.66;4998861;28;19999;-72
2024/01/18 08:38:06;;;;;;;;;;;;;;;-3.33;100.00;99834.00;5002266;28;19925;-72
2024/01/18 08:40:33;;;;;;;;;;;;;;;-3.08;100.00;99834.84;4999677;28;19929;-72
2024/01/18 08:42:59;;;;;;;;;;;;;;;-2.71;100.00;99838.72;5002609;28;19922;-72
2024/01/18 08:45:24;;;;;;;;;;;;;;;-2.43;100.00;99854.25;5003731;28;19928;-72
2024/01/18 08:47:49;;;;;;;;;;;;;;;-2.13;100.00;99853.94;4989027;28;19921;-72
2024/01/18 08:50:17;;;;;;;;;;;;;;;-1.75;100.00;99855.88;4998655;28;20980;-72
2024/01/18 08:52:43;;;;;;;;;;;;;;;-1.51;100.00;99843.44;4993520;28;20410;-72
2024/01/18 08:55:08;;;;;;;;;;;;;;;-1.11;100.00;99861.88;4991138;28;19953;-72
2024/01/18 08:57:33;;;;;;;;;;;;;;;-0.84;100.00;99864.19;4988961;28;22258;-72
2024/01/18 08:59:58;;;;;;;;;;;;;;;-0.77;100.00;99865.59;4992328;28;19956;-72
2024/01/18 09:02:24;;;;;;;;;;;;;;;-0.69;100.00;99873.16;4995668;28;19929;-72
2024/01/18 09:04:50;;;;;;;;;;;;;;;-0.67;100.00;99873.09;4992021;28;19999;-72
2024/01/18 09:07:15;;;;;;;;;;;;;;;-0.67;100.00;99873.97;4990527;28;20295;-72
2024/01/18 09:09:41;;;;;;;;;;;;;;;-0.60;100.00;99877.16;4992331;28;19917;-72
2024/01/18 09:12:06;;;;;;;;;;;;;;;-0.42;100.00;99891.25;4995026;28;19933;-72
2024/01/18 09:14:32;;;;;;;;;;;;;;;-0.26;100.00;99895.78;4996734;28;20279;-72
2024/01/18 09:16:57;;;;;;;;;;;;;;;-0.06;100.00;99903.59;4994737;28;20040;-73
2024/01/18 09:19:22;;;;;;;;;;;;;;;0.14;100.00;99901.75;4991069;28;19932;-73
2024/01/18 09:21:47;;;;;;;;;;;;;;;0.42;100.00;99897.72;4995523;28;19928;-73
2024/01/18 09:24:13;;;;;;;;;;;;;;;0.55;100.00;99905.88;4987827;28;20473;-73
2024/01/18 09:26:38;;;;;;;;;;;;;;;0.54;100.00;99914.75;4991592;28;19972;-73
2024/01/18 09:29:03;;;;;;;;;;;;;;;0.64;100.00;99913.34;4992105;28;19995;-73
2024/01/18 09:31:29;;;;;;;;;;;;;;;0.76;100.00;99921.59;4994965;28;19925;-73
2024/01/18 09:33:54;;;;;;;;;;;;;;;0.85;100.00;99924.59;5014195;28;20141;-73
2024/01/18 09:36:19;;;;;;;;;;;;;;;1.04;100.00;99928.91;4993465;28;19925;-73
2024/01/18 09:38:46;;;;;;;;;;;;;;;1.09;100.00;99928.66;4999475;28;20486;-73
2024/01/18 09:41:12;;;;;;;;;;;;;;;1.22;100.00;99931.50;4991832;28;19925;-72
2024/01/18 09:43:38;;;;;;;;;;;;;;;1.61;100.00;99941.72;4996730;28;19921;-72
2024/01/18 09:46:07;;;;;;;;;;;;;;;2.27;100.00;99943.41;5001006;28;19926;-72
2024/01/18 09:48:32;;;;;;;;;;;;;;;2.78;100.00;99946.59;4999893;28;19932;-72
2024/01/18 09:50:58;;;;;;;;;;;;;;;3.23;100.00;99954.50;4976435;28;19925;-71
2024/01/18 09:53:24;;;;;;;;;;;;;;;3.53;100.00;99958.00;4977551;28;19964;-71
2024/01/18 09:55:49;;;;;;;;;;;;;;;3.73;100.00;99964.72;5015016;28;19963;-71
2024/01/18 09:58:15;;;;;;;;;;;;;;;3.77;100.00;99968.03;4993829;28;20275;-71
2024/01/18 10:00:42;;;;;;;;;;;;;;;3.82;100.00;99969.47;4999877;28;19925;-71
2024/01/18 10:03:07;;;;;;;;;;;;;;;4.21;100.00;99980.28;4999333;28;20334;-71
2024/01/18 10:05:32;;;;;;;;;;;;;;;4.48;100.00;99992.72;5001197;28;20376;-71
2024/01/18 10:07:57;;;;;;;;;;;;;;;4.88;100.00;99989.19;4972657;28;19926;-71
2024/01/18 10:10:23;;;;;;;;;;;;;;;5.21;100.00;99993.13;4996920;28;19965;-72
2024/01/18 10:12:48;;;;;;;;;;;;;;;5.28;100.00;99994.44;4989456;28;20023;-72
2024/01/18 10:15:28;;;;;;;;;;;;;;;5.81;100.00;99998.75;4994414;28;19929;-71
2024/01/18 10:17:53;;;;;;;;;;;;;;;5.82;100.00;100000.44;4998197;28;19957;-72
2024/01/18 10:20:18;;;;;;;;;;;;;;;6.04;100.00;100010.47;4994262;28;20234;-71
2024/01/18 10:22:43;;;;;;;;;;;;;;;6.30;100.00;100010.38;4994441;28;19926;-71
2024/01/18 10:25:09;;;;;;;;;;;;;;;6.21;100.00;100009.25;4997085;28;19932;-72
2024/01/18 10:27:35;;;;;;;;;;;;;;;6.51;100.00;100015.09;5003860;28;19959;-71
2024/01/18 10:30:01;;;;;;;;;;;;;;;7.01;100.00;100014.94;4998720;28;19921;-71
2024/01/18 10:32:30;;;;;;;;;;;;;;;7.48;100.00;100018.44;5005212;28;19921;-71
2024/01/18 10:34:55;;;;;;;;;;;;;;;7.79;100.00;100010.66;4994392;28;20347;-71
2024/01/18 10:37:20;;;;;;;;;;;;;;;8.23;98.12;100025.94;5003108;28;19921;-71
2024/01/18 10:39:47;;;;;;;;;;;;;;;8.75;96.52;100022.66;4992556;28;19964;-71
2024/01/18 10:42:13;;;;;;;;;;;;;;;8.77;93.44;100015.34;4996936;28;20364;-71
2024/01/18 10:44:39;;;;;;;;;;;;;;;9.21;91.54;100024.13;4996701;28;19921;-71
2024/01/18 10:47:09;;;;;;;;;;;;;;;9.32;89.62;100019.69;4994833;28;19921;-72
2024/01/18 10:49:34;;;;;;;;;;;;;;;9.71;86.28;100027.91;4980471;28;20514;-71
2024/01/18 10:51:59;;;;;;;;;;;;;;;10.30;84.90;100025.44;4998829;28;19917;-72
2024/01/18 10:54:24;;;;;;;;;;;;;;;10.46;81.66;100033.00;4996807;28;19921;-71
2024/01/18 10:56:50;;;;;;;;;;;;;;;10.85;80.48;100027.69;4997054;28;20194;-72
2024/01/18 10:59:15;;;;;;;;;;;;;;;11.08;78.17;100030.06;5000460;28;19935;-72
2024/01/18 11:01:40;;;;;;;;;;;;;;;10.95;76.71;100033.88;4994778;28;20361;-71
2024/01/18 11:04:05;;;;;;;;;;;;;;;11.14;77.34;100037.53;4994287;28;20307;-71
2024/01/18 11:06:30;;;;;;;;;;;;;;;10.59;73.97;100036.28;4989414;28;20376;-72
2024/01/18 11:08:56;;;;;;;;;;;;;;;10.06;75.47;100045.44;4995001;28;20387;-70
2024/01/18 11:11:21;;;;;;;;;;;;;;;9.96;77.68;100047.22;4977217;28;19981;-69
2024/01/18 11:13:46;;;;;;;;;;;;;;;10.26;77.02;100045.47;4994563;28;19959;-70
2024/01/18 11:16:12;;;;;;;;;;;;;;;10.64;75.49;100054.66;4995621;28;19930;-70
2024/01/18 11:18:37;;;;;;;;;;;;;;;10.64;75.17;100055.47;4979705;28;19976;-69
2024/01/18 11:21:04;;;;;;;;;;;;;;;11.25;73.87;100058.06;4991301;28;20065;-70
2024/01/18 11:23:33;;;;;;;;;;;;;;;10.81;71.75;100066.53;4988962;28;19959;-70
2024/01/18 11:25:58;;;;;;;;;;;;;;;11.00;71.40;100060.31;4989755;28;19929;-70
2024/01/18 11:28:24;;;;;;;;;;;;;;;11.03;71.25;100065.38;4987184;28;19921;-70
2024/01/18 11:30:49;;;;;;;;;;;;;;;10.90;70.98;100056.78;5003971;28;19921;-70
2024/01/18 11:33:14;;;;;;;;;;;;;;;11.08;71.19;100068.50;4990178;28;20331;-70
2024/01/18 11:35:42;;;;;;;;;;;;;;;11.65;70.59;100067.72;4990840;28;20360;-70
2024/01/18 11:38:20;;;;;;;;;;;;;;;12.29;67.94;100064.38;4989668;28;19925;-70
2024/01/18 11:40:46;;;;;;;;;;;;;;;12.96;65.07;100060.53;4998622;28;19948;-70
2024/01/18 11:43:11;;;;;;;;;;;;;;;12.75;62.91;100067.91;4973546;28;20283;-69
2024/01/18 11:45:37;;;;;;;;;;;;;;;12.69;64.41;100076.63;4977996;28;20387;-70
2024/01/18 11:48:03;;;;;;;;;;;;;;;13.00;63.44;100072.72;4979463;28;19918;-70
2024/01/18 11:50:28;;;;;;;;;;;;;;;12.47;61.15;100079.72;4994088;28;19921;-70
2024/01/18 11:52:53;;;;;;;;;;;;;;;12.40;62.37;100082.19;4975292;28;19918;-70
2024/01/18 11:55:19;;;;;;;;;;;;;;;12.60;61.73;100078.38;4995866;28;19917;-70
2024/01/18 11:57:44;;;;;;;;;;;;;;;12.74;60.72;100085.09;4992459;28;19921;-70
2024/01/18 12:00:12;;;;;;;;;;;;;;;12.19;60.46;100090.50;4989210;28;19931;-70
2024/01/18 12:02:37;;;;;;;;;;;;;;;12.03;59.64;100093.84;4974878;28;20297;-70
2024/01/18 12:05:04;;;;;;;;;;;;;;;11.79;61.77;100090.63;4981381;28;20388;-70
2024/01/18 12:07:29;;;;;;;;;;;;;;;11.60;60.58;100106.81;4995279;28;19968;-70
2024/01/18 12:09:54;;;;;;;;;;;;;;;11.05;62.49;100122.50;4998100;28;20395;-72
2024/01/18 12:12:20;;;;;;;;;;;;;;;10.38;65.33;100132.09;4996231;28;20378;-70
2024/01/18 12:14:47;;;;;;;;;;;;;;;10.75;65.06;100127.00;4993387;28;19972;-70
2024/01/18 12:17:12;;;;;;;;;;;;;;;9.76;67.05;100140.97;4981427;28;19929;-70
2024/01/18 12:19:38;;;;;;;;;;;;;;;10.02;65.43;100135.19;4998728;28;19930;-70
2024/01/18 12:22:07;;;;;;;;;;;;;;;10.28;65.56;100129.38;4996616;28;19928;-70
2024/01/18 12:24:32;;;;;;;;;;;;;;;10.64;65.70;100132.50;4993788;28;20403;-70
2024/01/18 12:26:58;;;;;;;;;;;;;;;10.75;64.06;100129.69;4971221;28;20547;-72
2024/01/18 12:29:23;;;;;;;;;;;;;;;10.89;63.94;100143.72;4992940;28;19914;-72